Etusivu
METAR-TAF:

METAR-TAF

Lentoasemat :

Culiacán, Meksiko

Leveyspiiri: 24-49N, Pituuspiiri: 107-24W, korkeus merenpinnasta: 39 m

Tämänhetkinen sää

Tämä raportti tehtiin 23 minuuttia sitten, kello 21.57 UTC
Tuuli 6 kn lännestä/lounaasta
Lämpötila 35°C
Kosteus 27%
Ilmanpaine 1010 hPa
Näkyvyys: 16.1 km
Muutamia pilviä 23000 ft:n korkeudessa

METAR: MMCL 302157Z RTD 25006KT 10SM FEW230 35/13 A2983 RMK 8/004

Aika: 15:20 (22:20 UTC)

Sääennuste

Tämä raportti tehtiin 5 tuntia ja 35 minuuttia sitten, kello 16.45 UTC
Ennuste voimassa 30. päivästä klo 18 UTC - 31. päivään klo 18 UTC
Tuuli 15 kn lännestä
Näkyvyys: 10 km
Hajanaisia pilviä 23000 ft:n korkeudessa
Tulossa
31. päivästä klo 00 UTC - 31. päivään klo 01 UTC
Tuuli kn pohjoisesta
From 31. päivästä klo 1600 UTC
Tuuli 10 kn pohjoisesta/koillisesta
Näkyvyys: 10 km
selkeää

TAF: MMCL 301645Z 3018/3118 27015KT P6SM SCT230 BECMG 3100/3101 00000KT FM311600 03010KT P6SM SKC

Säähavainnot ja -ennusteet yli 4000 lentoasemalta (METAR- ja TAF-raportit).

Käytössä olevat sääasemat on merkitty karttaan keltaisilla ja punaisilla pisteillä.

Aseta hiiri pisteen päälle nähdäksesi sääaseman nimen.

Klikkaa sitten nähdäksesi säähavainnot ja -ennusteet.

Kartan vaihtaminen: klikkaa mustalla rastilla varustettuja vihreitä pisteitä, niin voit zoomata sisään; viivalla varustettua vihreää pistettä, niin voit zoomata ulos tai vihreitä nuolia, niin pääset viereisille kartoille.


METAR-TAF: